Main page


Airports :

Valladolid, Spain

Valladolid Airport

latitude: 41-43N, longitude: 004-51W, elevation: 849 m

Current weather observation

The report was made 17 minutes ago, at 06:30 UTC
Wind 8 kt from the North/Northwest
Temperature -1°C
Humidity 80%
Pressure 1026 hPa
Visibility 10 km or more
Scattered clouds at a height of 3000 ft
Scattered clouds at a height of 4000 ft

METAR: LEVD 210630Z 34008KT 9999 SCT030 SCT040 M01/M04 Q1026

Time: 07:47 (06:47 UTC)


The report was made 1 hour and 47 minutes ago, at 05:00 UTC
Forecast valid from 21 at 06 UTC to 22 at 06 UTC
Wind 12 kt from the North/Northeast
Visibility 10 km or more
Broken clouds at a height of 3000 ft
from 21 at 10 UTC to 21 at 11 UTC
Wind 16 kt from the North/Northeast
from 21 at 12 UTC to 21 at 17 UTC
Wind 18 kt from the North with gusts up to 30 kt

TAF: LEVD 210500Z 2106/2206 03012KT 9999 BKN030 TX08/2115Z TNM02/2106Z BECMG 2110/2111 02016KT TEMPO 2112/2117 36018G30KT

Weather observations and forecasts of more than 4000 airports (METAR and TAF reports).

The available stations are represented by yellow and red dots on the map.

Hover mouse over dot to see the name of the station.

Then click to see weather observations and forecasts.

To change the map : click on the green buttons with a black cross to zoom in, on the green button with a dash to zoom out, or on the green arrows for adjacent maps.